Search for airport 
image banner adimage banner adimage banner ad
image banner ad

1CL8 - Marian Medical Center

Located in Santa Maria, United States

ICAO - 1CL8, IATA -

Data provided by Airmate  

General information

Coordinates: N34°57'2" W120°24'42"
Elevation is 256 feet MSL.
Magnetic variation is 15° East
View others Airports in California

Operational data

Special qualification required
Current time UTC:
Current local time:
METAR: KSMX 210851Z AUTO 28003KT 7SM OVC005 13/12 A2994 RMK AO2 SLP138 T01330117 53001
TAF: KSMX 210858Z 2109/2206 VRB03KT P6SM OVC005 FM211200 VRB03KT 2SM BR OVC002 FM211600 VRB03KT 5SM BR OVC007 FM211800 VRB03KT 6SM BR SCT010 FM212000 29010KT P6SM SKC FM220400 31006KT P6SM BKN006
View NOTAMs / SUP AIP / TFR affecting this airport [VIEW]
Communications frequencies: [VIEW]

Runways:

Airport contact information

Address: Santa Maria United States

Satellite view of 1CL8